Time;durP1;ratioP1;P1;durP2;ratioP2;P2;SDS_P1;SDS_P2;PMS_P1;PMS_P2;Temp;Humidity;BMP_temperature;BMP_pressure;BME280_temperature;BME280_humidity;BME280_pressure;Samples;Min_cycle;Max_cycle;Signal;HPM_P1;HPM_P2
2024/01/14 00:01:00;;;;;;;75.53;34.00;;;0.60;99.90;;;;;;5117750;27;20473;-69
2024/01/14 00:03:27;;;;;;;90.40;34.37;;;0.60;99.90;;;;;;5117931;28;20498;-67
2024/01/14 00:05:55;;;;;;;104.63;38.07;;;0.60;99.90;;;;;;5118239;28;20434;-68
2024/01/14 00:08:22;;;;;;;95.03;37.43;;;0.70;99.90;;;;;;5118123;28;20505;-68
2024/01/14 00:10:50;;;;;;;95.30;35.20;;;0.70;99.90;;;;;;5118396;28;20428;-71
2024/01/14 00:13:18;;;;;;;100.40;35.00;;;0.60;99.90;;;;;;5127666;28;20494;-69
2024/01/14 00:15:45;;;;;;;80.90;35.63;;;0.60;99.90;;;;;;5123827;28;20472;-68
2024/01/14 00:18:14;;;;;;;84.33;33.30;;;0.60;99.90;;;;;;5121227;28;20434;-69
2024/01/14 00:20:42;;;;;;;85.73;33.43;;;0.60;99.90;;;;;;5120393;28;20931;-69
2024/01/14 00:23:09;;;;;;;77.87;33.67;;;0.70;99.90;;;;;;5122307;28;20464;-70
2024/01/14 00:25:37;;;;;;;84.57;32.53;;;0.70;99.90;;;;;;5122706;28;20479;-70
2024/01/14 00:28:05;;;;;;;91.23;31.50;;;0.70;99.90;;;;;;5124299;28;20460;-69
2024/01/14 00:30:32;;;;;;;80.33;32.00;;;0.60;99.90;;;;;;5119856;28;20448;-69
2024/01/14 00:32:59;;;;;;;104.13;33.80;;;0.70;99.90;;;;;;5119235;28;20732;-68
2024/01/14 00:35:28;;;;;;;72.50;32.33;;;0.70;99.90;;;;;;5113624;28;20942;-69
2024/01/14 00:37:56;;;;;;;87.53;31.37;;;0.70;99.90;;;;;;5098607;28;20477;-68
2024/01/14 00:40:23;;;;;;;93.10;32.17;;;0.70;99.90;;;;;;5097795;28;20712;-67
2024/01/14 00:42:51;;;;;;;78.27;32.30;;;0.70;99.90;;;;;;5097765;28;20498;-68
2024/01/14 00:45:18;;;;;;;67.60;29.63;;;0.70;99.90;;;;;;5098151;28;20460;-68
2024/01/14 00:47:45;;;;;;;65.83;28.90;;;0.60;99.90;;;;;;5098593;28;20442;-68
2024/01/14 00:50:13;;;;;;;64.30;28.80;;;0.60;99.90;;;;;;5098019;28;20526;-67
2024/01/14 00:52:42;;;;;;;75.60;29.70;;;0.70;99.90;;;;;;5097998;28;20463;-70
2024/01/14 00:55:10;;;;;;;66.40;29.87;;;0.70;99.90;;;;;;5098023;28;20902;-67
2024/01/14 00:57:37;;;;;;;58.70;28.23;;;0.70;99.90;;;;;;5097641;28;20813;-67
2024/01/14 01:00:09;;;;;;;71.63;30.97;;;0.70;99.90;;;;;;5096280;28;20433;-67
2024/01/14 01:02:36;;;;;;;61.93;30.60;;;0.70;99.90;;;;;;5096741;28;20491;-68
2024/01/14 01:05:04;;;;;;;63.03;29.57;;;0.70;99.90;;;;;;5097221;28;20821;-67
2024/01/14 01:07:31;;;;;;;66.00;30.40;;;0.80;99.90;;;;;;5096691;28;21005;-66
2024/01/14 01:10:00;;;;;;;71.63;32.90;;;0.80;99.90;;;;;;5097894;28;20476;-67
2024/01/14 01:12:28;;;;;;;63.40;31.40;;;0.80;99.90;;;;;;5097989;28;20474;-70
2024/01/14 01:14:55;;;;;;;79.33;33.57;;;0.70;99.90;;;;;;5100143;28;20779;-68
2024/01/14 01:17:23;;;;;;;70.43;32.50;;;0.80;99.90;;;;;;5100121;28;20443;-67
2024/01/14 01:19:51;;;;;;;84.67;36.63;;;0.70;99.90;;;;;;5099519;28;20448;-67
2024/01/14 01:22:19;;;;;;;81.80;35.30;;;0.70;99.90;;;;;;5099184;28;20792;-67
2024/01/14 01:24:46;;;;;;;90.33;34.20;;;0.70;99.90;;;;;;5099470;28;20466;-66
2024/01/14 01:27:15;;;;;;;87.83;37.73;;;0.70;99.90;;;;;;5099149;28;20523;-67
2024/01/14 01:29:42;;;;;;;113.80;39.40;;;0.70;99.90;;;;;;5099910;28;20445;-68
2024/01/14 01:32:10;;;;;;;94.50;38.20;;;0.70;99.90;;;;;;5099993;28;20980;-68
2024/01/14 01:34:37;;;;;;;121.70;36.47;;;0.70;99.90;;;;;;5099439;28;20442;-68
2024/01/14 01:37:05;;;;;;;91.73;37.10;;;0.70;99.90;;;;;;5099683;28;20452;-67
2024/01/14 01:39:33;;;;;;;107.97;40.87;;;0.70;99.90;;;;;;5099688;28;20464;-67
2024/01/14 01:42:00;;;;;;;98.27;38.67;;;0.70;99.90;;;;;;5099367;28;20579;-67
2024/01/14 01:44:29;;;;;;;89.10;37.93;;;0.70;99.90;;;;;;5098106;28;20488;-69
2024/01/14 01:46:57;;;;;;;89.90;38.83;;;0.70;99.90;;;;;;5097900;28;20876;-67
2024/01/14 01:49:25;;;;;;;89.27;36.93;;;0.80;99.90;;;;;;5097710;28;20447;-67
2024/01/14 01:51:52;;;;;;;89.93;37.30;;;0.70;99.90;;;;;;5097612;28;20451;-68
2024/01/14 01:54:22;;;;;;;89.53;35.50;;;0.70;99.90;;;;;;5096681;28;20592;-67
2024/01/14 01:56:51;;;;;;;83.03;35.97;;;0.80;99.90;;;;;;5097262;28;20456;-67
2024/01/14 01:59:19;;;;;;;77.23;35.70;;;0.80;99.90;;;;;;5097212;28;20738;-67
2024/01/14 02:01:48;;;;;;;76.63;33.57;;;0.80;99.90;;;;;;5096993;28;20474;-67
2024/01/14 02:04:17;;;;;;;79.53;35.20;;;0.70;99.90;;;;;;5096894;28;20801;-66
2024/01/14 02:06:44;;;;;;;82.83;36.40;;;0.80;99.90;;;;;;5097135;28;20478;-66
2024/01/14 02:09:12;;;;;;;76.20;32.77;;;0.80;99.90;;;;;;5096930;28;20523;-67
2024/01/14 02:11:39;;;;;;;78.10;34.50;;;0.70;99.90;;;;;;5096944;28;20877;-66
2024/01/14 02:14:07;;;;;;;71.27;34.33;;;0.70;99.90;;;;;;5096818;28;20560;-67
2024/01/14 02:16:34;;;;;;;67.87;32.20;;;0.70;99.90;;;;;;5097136;28;20809;-67
2024/01/14 02:19:03;;;;;;;65.03;32.67;;;0.70;99.90;;;;;;5096592;28;20559;-67
2024/01/14 02:21:34;;;;;;;68.77;31.07;;;0.80;99.90;;;;;;5097098;28;20908;-67
2024/01/14 02:24:11;;;;;;;72.47;32.40;;;0.80;99.90;;;;;;5096310;28;20549;-67
2024/01/14 02:26:38;;;;;;;69.50;33.53;;;0.80;99.90;;;;;;5096801;28;20460;-67
2024/01/14 02:29:07;;;;;;;62.07;29.10;;;0.80;99.90;;;;;;5099008;28;20463;-67
2024/01/14 02:31:34;;;;;;;75.53;33.80;;;0.80;99.90;;;;;;5100671;28;20471;-67
2024/01/14 02:34:03;;;;;;;66.50;31.33;;;0.70;99.90;;;;;;5100319;28;20495;-67
2024/01/14 02:36:31;;;;;;;69.37;34.20;;;0.80;99.90;;;;;;5100498;28;20455;-67
2024/01/14 02:38:58;;;;;;;71.33;32.13;;;0.70;99.90;;;;;;5100101;28;20467;-67
2024/01/14 02:41:26;;;;;;;68.53;31.27;;;0.80;99.90;;;;;;5100320;28;20542;-68
2024/01/14 02:43:54;;;;;;;63.53;29.80;;;0.80;99.90;;;;;;5100547;28;20551;-68
2024/01/14 02:46:20;;;;;;;67.97;29.23;;;0.80;99.90;;;;;;5099976;28;20438;-68
2024/01/14 02:48:48;;;;;;;67.40;31.17;;;0.80;99.90;;;;;;5100411;28;20508;-68
2024/01/14 02:51:15;;;;;;;54.43;28.23;;;0.80;99.90;;;;;;5100392;28;20464;-67
2024/01/14 02:53:42;;;;;;;50.33;26.97;;;0.80;99.90;;;;;;5100329;28;20488;-68
2024/01/14 02:56:11;;;;;;;48.93;24.93;;;0.70;99.90;;;;;;5099857;28;20457;-67
2024/01/14 02:58:39;;;;;;;58.27;28.97;;;0.70;99.90;;;;;;5100146;28;20445;-68
2024/01/14 03:01:07;;;;;;;55.77;27.60;;;0.80;99.90;;;;;;5099902;28;20437;-67
2024/01/14 03:03:35;;;;;;;55.13;27.73;;;0.80;99.90;;;;;;5100073;28;20590;-67
2024/01/14 03:06:02;;;;;;;51.83;26.60;;;0.70;99.90;;;;;;5106367;28;20467;-68
2024/01/14 03:08:29;;;;;;;62.03;30.43;;;0.80;99.90;;;;;;5119442;28;20526;-69
2024/01/14 03:10:57;;;;;;;63.30;31.20;;;0.80;99.90;;;;;;5120483;28;20463;-67
2024/01/14 03:13:24;;;;;;;62.10;30.30;;;0.80;99.90;;;;;;5120348;28;20456;-70
2024/01/14 03:15:53;;;;;;;61.30;30.30;;;0.70;99.90;;;;;;5120207;28;20434;-68
2024/01/14 03:18:20;;;;;;;67.53;33.37;;;0.70;99.90;;;;;;5120056;28;20813;-70
2024/01/14 03:20:47;;;;;;;57.53;29.77;;;0.70;99.90;;;;;;5119980;28;20469;-68
2024/01/14 03:23:15;;;;;;;61.60;31.70;;;0.70;99.90;;;;;;5120158;28;20759;-68
2024/01/14 03:25:42;;;;;;;67.53;30.73;;;0.70;99.90;;;;;;5120285;28;20468;-68
2024/01/14 03:28:09;;;;;;;63.27;31.13;;;0.70;99.90;;;;;;5119877;28;20436;-68
2024/01/14 03:30:36;;;;;;;63.33;32.27;;;0.70;99.90;;;;;;5119751;28;20461;-68
2024/01/14 03:33:05;;;;;;;63.73;30.10;;;0.70;99.90;;;;;;5120391;28;20511;-68
2024/01/14 03:35:32;;;;;;;60.27;30.77;;;0.70;99.90;;;;;;5120563;28;20463;-68
2024/01/14 03:38:00;;;;;;;61.37;30.17;;;0.70;99.90;;;;;;5119558;28;20437;-68
2024/01/14 03:40:27;;;;;;;63.97;29.57;;;0.70;99.90;;;;;;5119682;28;20454;-68
2024/01/14 03:42:54;;;;;;;56.70;31.10;;;0.70;99.90;;;;;;5119992;28;20494;-68
2024/01/14 03:45:21;;;;;;;61.53;30.50;;;0.70;99.90;;;;;;5120385;28;20760;-68
2024/01/14 03:47:49;;;;;;;58.20;28.03;;;0.70;99.90;;;;;;5120256;28;20549;-68
2024/01/14 03:50:17;;;;;;;56.90;28.70;;;0.80;99.90;;;;;;5119947;28;20503;-68
2024/01/14 03:52:45;;;;;;;58.57;27.93;;;0.70;99.90;;;;;;5120135;28;20458;-68
2024/01/14 03:55:13;;;;;;;49.40;26.53;;;0.80;99.90;;;;;;5120044;28;20526;-69
2024/01/14 03:57:40;;;;;;;50.97;27.40;;;0.80;99.90;;;;;;5119384;28;20443;-69
2024/01/14 04:00:10;;;;;;;52.13;28.80;;;0.80;99.90;;;;;;5120207;28;20745;-69
2024/01/14 04:02:37;;;;;;;56.27;28.67;;;0.80;99.90;;;;;;5119820;28;20462;-69
2024/01/14 04:05:05;;;;;;;54.00;29.00;;;0.80;99.90;;;;;;5120295;28;20872;-68
2024/01/14 04:07:34;;;;;;;66.30;32.10;;;0.70;99.90;;;;;;5119948;28;20849;-69
2024/01/14 04:10:01;;;;;;;55.40;28.30;;;0.70;99.90;;;;;;5119820;28;20481;-69
2024/01/14 04:12:28;;;;;;;63.03;30.60;;;0.70;99.90;;;;;;5120291;28;20760;-69
2024/01/14 04:14:56;;;;;;;74.03;32.60;;;0.70;99.90;;;;;;5120302;28;20459;-69
2024/01/14 04:17:23;;;;;;;61.37;31.27;;;0.70;99.90;;;;;;5120847;28;20775;-68
2024/01/14 04:19:50;;;;;;;66.27;33.30;;;0.70;99.90;;;;;;5120413;28;20455;-68
2024/01/14 04:22:17;;;;;;;61.73;31.77;;;0.70;99.90;;;;;;5119164;28;20494;-69
2024/01/14 04:24:46;;;;;;;72.90;34.27;;;0.70;99.90;;;;;;5119840;28;20904;-68
2024/01/14 04:27:13;;;;;;;71.67;36.13;;;0.70;99.90;;;;;;5119908;28;20493;-68
2024/01/14 04:29:41;;;;;;;79.63;37.17;;;0.70;99.90;;;;;;5120269;28;20763;-68
2024/01/14 04:32:09;;;;;;;73.73;38.10;;;0.70;99.90;;;;;;5119821;28;20462;-68
2024/01/14 04:34:37;;;;;;;79.70;37.37;;;0.80;99.90;;;;;;5119511;28;20557;-69
2024/01/14 04:37:05;;;;;;;79.10;36.90;;;0.70;99.90;;;;;;5119576;28;20483;-67
2024/01/14 04:39:32;;;;;;;77.73;35.60;;;0.70;99.90;;;;;;5120141;28;20474;-68
2024/01/14 04:42:01;;;;;;;70.13;36.27;;;0.70;99.90;;;;;;5119554;28;20552;-67
2024/01/14 04:44:28;;;;;;;76.13;34.67;;;0.70;99.90;;;;;;5119057;28;20462;-68
2024/01/14 04:46:56;;;;;;;84.67;36.23;;;0.70;99.90;;;;;;5119608;28;20459;-67
2024/01/14 04:49:24;;;;;;;82.63;36.97;;;0.70;99.90;;;;;;5119900;28;20441;-67
2024/01/14 04:51:51;;;;;;;81.67;36.60;;;0.70;99.90;;;;;;5119192;28;20534;-66
2024/01/14 04:54:18;;;;;;;83.23;37.40;;;0.70;99.90;;;;;;5119086;28;20437;-67
2024/01/14 04:56:46;;;;;;;81.90;36.17;;;0.70;99.90;;;;;;5119599;28;20503;-67
2024/01/14 04:59:14;;;;;;;80.70;36.63;;;0.70;99.90;;;;;;5118893;28;20481;-67
2024/01/14 05:01:41;;;;;;;77.73;35.27;;;0.70;99.90;;;;;;5119177;28;20928;-66
2024/01/14 05:04:11;;;;;;;77.17;35.50;;;0.70;99.90;;;;;;5118412;28;20500;-67
2024/01/14 05:06:38;;;;;;;79.13;33.50;;;0.70;99.90;;;;;;5118743;28;20566;-66
2024/01/14 05:09:05;;;;;;;74.23;33.97;;;0.70;99.90;;;;;;5119352;28;20546;-67
2024/01/14 05:11:33;;;;;;;63.23;30.57;;;0.70;99.90;;;;;;5119568;28;20809;-67
2024/01/14 05:14:01;;;;;;;57.43;28.10;;;0.60;99.90;;;;;;5119664;28;20459;-67
2024/01/14 05:16:29;;;;;;;62.90;29.57;;;0.60;99.90;;;;;;5119598;28;20434;-66
2024/01/14 05:18:57;;;;;;;57.67;27.57;;;0.70;99.90;;;;;;5119204;28;20765;-67
2024/01/14 05:21:24;;;;;;;58.47;27.67;;;0.60;99.90;;;;;;5119268;28;20434;-66
2024/01/14 05:23:51;;;;;;;62.43;30.90;;;0.70;99.90;;;;;;5119344;28;20462;-67
2024/01/14 05:26:18;;;;;;;65.83;32.70;;;0.70;99.90;;;;;;5119071;28;20964;-66
2024/01/14 05:28:48;;;;;;;77.43;32.33;;;0.70;99.90;;;;;;5118893;28;20968;-67
2024/01/14 05:31:15;;;;;;;79.70;37.20;;;0.70;99.90;;;;;;5119417;28;20458;-66
2024/01/14 05:33:44;;;;;;;84.30;37.20;;;0.70;99.90;;;;;;5119076;28;20462;-66
2024/01/14 05:36:11;;;;;;;65.90;34.37;;;0.70;99.90;;;;;;5118776;28;20492;-67
2024/01/14 05:38:39;;;;;;;77.67;34.97;;;0.60;99.90;;;;;;5118652;28;20459;-66
2024/01/14 05:41:06;;;;;;;71.60;32.17;;;0.60;99.90;;;;;;5118070;28;20550;-66
2024/01/14 05:43:33;;;;;;;67.00;34.47;;;0.70;99.90;;;;;;5116915;28;20505;-67
2024/01/14 05:46:00;;;;;;;64.73;35.67;;;0.70;99.90;;;;;;5116459;28;20561;-66
2024/01/14 05:48:27;;;;;;;71.37;33.70;;;0.70;99.90;;;;;;5117350;28;20462;-66
2024/01/14 05:50:56;;;;;;;73.17;35.47;;;0.70;99.90;;;;;;5116702;28;20465;-66
2024/01/14 05:53:23;;;;;;;73.77;34.80;;;0.60;99.90;;;;;;5117419;28;20815;-66
2024/01/14 05:55:50;;;;;;;72.07;32.93;;;0.60;99.90;;;;;;5117533;28;20557;-66
2024/01/14 05:58:17;;;;;;;67.97;32.50;;;0.70;99.90;;;;;;5118576;28;20462;-67
2024/01/14 06:00:44;;;;;;;62.67;30.87;;;0.70;99.90;;;;;;5118429;28;20463;-66
2024/01/14 06:03:11;;;;;;;63.00;30.40;;;0.60;99.90;;;;;;5119838;28;20594;-67
2024/01/14 06:05:39;;;;;;;61.00;33.13;;;0.70;99.90;;;;;;5120812;28;20524;-66
2024/01/14 06:08:07;;;;;;;72.33;33.40;;;0.70;99.90;;;;;;5120378;28;20491;-66
2024/01/14 06:10:34;;;;;;;70.10;32.00;;;0.70;99.90;;;;;;5120498;28;20458;-66
2024/01/14 06:13:01;;;;;;;62.20;32.03;;;0.70;99.90;;;;;;5120691;28;20430;-66
2024/01/14 06:15:29;;;;;;;65.03;31.83;;;0.70;99.90;;;;;;5121142;28;20744;-67
2024/01/14 06:17:56;;;;;;;64.90;29.50;;;0.70;99.90;;;;;;5121680;28;20474;-67
2024/01/14 06:20:23;;;;;;;64.37;30.80;;;0.70;99.90;;;;;;5121848;28;20531;-66
2024/01/14 06:22:50;;;;;;;64.53;30.07;;;0.70;99.90;;;;;;5121817;28;20498;-66
2024/01/14 06:25:19;;;;;;;69.23;31.07;;;0.70;99.90;;;;;;5122123;28;20546;-66
2024/01/14 06:27:46;;;;;;;63.20;30.30;;;0.70;99.90;;;;;;5122374;28;20433;-66
2024/01/14 06:30:15;;;;;;;65.07;29.97;;;0.60;99.90;;;;;;5121816;28;20477;-66
2024/01/14 06:32:42;;;;;;;73.07;33.43;;;0.60;99.90;;;;;;5121550;28;20425;-66
2024/01/14 06:35:10;;;;;;;68.57;32.57;;;0.60;99.90;;;;;;5121531;28;20977;-65
2024/01/14 06:37:38;;;;;;;75.43;34.73;;;0.70;99.90;;;;;;5121792;28;20807;-65
2024/01/14 06:40:06;;;;;;;66.47;32.67;;;0.60;99.90;;;;;;5120869;28;20459;-65
2024/01/14 06:42:35;;;;;;;67.10;32.30;;;0.60;99.90;;;;;;5121782;28;20731;-65
2024/01/14 06:45:03;;;;;;;70.60;33.40;;;0.70;99.90;;;;;;5121228;28;20462;-65
2024/01/14 06:47:30;;;;;;;65.13;31.37;;;0.60;99.90;;;;;;5121593;28;20463;-65
2024/01/14 06:49:58;;;;;;;74.53;34.10;;;0.60;99.90;;;;;;5120907;28;20546;-64
2024/01/14 06:52:25;;;;;;;65.00;31.67;;;0.60;99.90;;;;;;5121067;28;20467;-64
2024/01/14 06:54:52;;;;;;;72.70;33.80;;;0.60;99.90;;;;;;5121229;28;20462;-64
2024/01/14 06:57:19;;;;;;;66.03;31.00;;;0.70;99.90;;;;;;5121313;28;20743;-64
2024/01/14 06:59:48;;;;;;;64.43;30.77;;;0.60;99.90;;;;;;5120819;28;20722;-65
2024/01/14 07:02:15;;;;;;;66.57;32.40;;;0.70;99.90;;;;;;5120476;28;20462;-65
2024/01/14 07:04:42;;;;;;;67.17;31.37;;;0.70;99.90;;;;;;5121287;28;20764;-64
2024/01/14 07:07:09;;;;;;;65.63;30.93;;;0.60;99.90;;;;;;5120642;28;20469;-64
2024/01/14 07:09:36;;;;;;;75.30;32.20;;;0.60;99.90;;;;;;5121167;28;20460;-65
2024/01/14 07:12:04;;;;;;;65.43;28.60;;;0.50;99.90;;;;;;5119281;28;20842;-65
2024/01/14 07:14:32;;;;;;;72.87;34.50;;;0.50;99.90;;;;;;5120040;28;20493;-64
2024/01/14 07:17:01;;;;;;;69.37;31.93;;;0.60;99.90;;;;;;5120679;28;20443;-65
2024/01/14 07:19:28;;;;;;;61.70;30.87;;;0.60;99.90;;;;;;5120743;27;20458;-65
2024/01/14 07:21:56;;;;;;;72.43;33.53;;;0.60;99.90;;;;;;5120525;27;20464;-64
2024/01/14 07:24:23;;;;;;;69.73;32.30;;;0.60;99.90;;;;;;5119996;28;20507;-64
2024/01/14 07:26:50;;;;;;;61.50;29.20;;;0.60;99.90;;;;;;5120476;28;20575;-65
2024/01/14 07:29:17;;;;;;;62.07;30.33;;;0.60;99.90;;;;;;5120648;28;20910;-64
2024/01/14 07:31:44;;;;;;;57.13;28.70;;;0.60;99.90;;;;;;5120247;28;20918;-64
2024/01/14 07:34:13;;;;;;;57.70;29.10;;;0.60;99.90;;;;;;5119882;28;20462;-64
2024/01/14 07:36:40;;;;;;;62.43;30.73;;;0.60;99.90;;;;;;5119988;28;20500;-64
2024/01/14 07:39:08;;;;;;;64.13;31.80;;;0.60;99.90;;;;;;5119923;28;20459;-64
2024/01/14 07:41:35;;;;;;;69.10;30.03;;;0.60;99.90;;;;;;5119995;28;20806;-64
2024/01/14 07:44:02;;;;;;;63.73;29.00;;;0.70;99.90;;;;;;5119125;28;20454;-64
2024/01/14 07:46:29;;;;;;;63.53;29.40;;;0.60;99.90;;;;;;5119669;28;20890;-64
2024/01/14 07:48:56;;;;;;;56.43;28.40;;;0.60;99.90;;;;;;5119137;28;20554;-64
2024/01/14 07:51:25;;;;;;;61.67;28.87;;;0.60;99.90;;;;;;5119846;28;20484;-63
2024/01/14 07:53:52;;;;;;;59.97;28.47;;;0.50;99.90;;;;;;5119734;28;20465;-62
2024/01/14 07:56:21;;;;;;;66.63;28.93;;;0.50;99.90;;;;;;5119333;28;20531;-64
2024/01/14 07:58:48;;;;;;;64.40;27.63;;;0.60;99.90;;;;;;5119292;28;20481;-65
2024/01/14 08:01:15;;;;;;;66.73;30.10;;;0.60;99.90;;;;;;5119693;28;20471;-66
2024/01/14 08:03:43;;;;;;;67.03;30.10;;;0.60;99.90;;;;;;5119093;28;20581;-65
2024/01/14 08:06:10;;;;;;;59.30;28.37;;;0.60;99.90;;;;;;5118868;28;20465;-65
2024/01/14 08:08:39;;;;;;;64.67;29.73;;;0.60;99.90;;;;;;5118002;28;20457;-64
2024/01/14 08:11:07;;;;;;;48.73;26.37;;;0.60;99.90;;;;;;5118383;28;20433;-63
2024/01/14 08:13:34;;;;;;;64.80;28.23;;;0.60;99.90;;;;;;5118948;28;20460;-65
2024/01/14 08:16:01;;;;;;;59.10;27.63;;;0.60;99.90;;;;;;5118518;28;20494;-65
2024/01/14 08:18:28;;;;;;;68.00;29.27;;;0.60;99.90;;;;;;5118676;28;20529;-65
2024/01/14 08:20:56;;;;;;;63.77;27.97;;;0.60;99.90;;;;;;5118598;28;20444;-65
2024/01/14 08:23:23;;;;;;;60.00;27.40;;;0.60;99.90;;;;;;5118601;28;20471;-66
2024/01/14 08:25:51;;;;;;;64.87;27.90;;;0.60;99.90;;;;;;5116990;28;20837;-65
2024/01/14 08:28:19;;;;;;;49.30;23.77;;;0.70;99.90;;;;;;5118575;28;20848;-65
2024/01/14 08:30:46;;;;;;;49.13;24.07;;;0.60;99.90;;;;;;5118456;28;20484;-65
2024/01/14 08:33:13;;;;;;;48.00;23.90;;;0.60;99.90;;;;;;5118523;28;20489;-65
2024/01/14 08:35:40;;;;;;;42.97;22.20;;;0.60;99.90;;;;;;5118502;28;20550;-65
2024/01/14 08:38:07;;;;;;;44.43;24.07;;;0.60;99.90;;;;;;5117559;28;20524;-65
2024/01/14 08:40:35;;;;;;;43.57;21.43;;;0.60;99.90;;;;;;5118079;28;20553;-66
2024/01/14 08:43:03;;;;;;;37.93;19.93;;;0.50;99.90;;;;;;5118245;28;20442;-65
2024/01/14 08:45:30;;;;;;;38.70;19.43;;;0.50;99.90;;;;;;5117997;28;20542;-66
2024/01/14 08:47:58;;;;;;;36.07;18.33;;;0.60;99.90;;;;;;5116228;28;20762;-66
2024/01/14 08:50:25;;;;;;;35.80;18.27;;;0.60;99.90;;;;;;5116394;28;20462;-65
2024/01/14 08:52:53;;;;;;;36.97;18.67;;;0.60;99.90;;;;;;5116199;28;20436;-66
2024/01/14 08:55:20;;;;;;;33.93;18.40;;;0.50;99.90;;;;;;5115349;28;20528;-65
2024/01/14 08:57:47;;;;;;;34.37;17.50;;;0.50;99.90;;;;;;5116440;28;20773;-66
2024/01/14 09:00:17;;;;;;;35.13;19.63;;;0.50;99.90;;;;;;5116111;28;20760;-66
2024/01/14 09:02:45;;;;;;;38.60;19.83;;;0.50;99.90;;;;;;5116820;28;20437;-66
2024/01/14 09:05:13;;;;;;;38.40;19.80;;;0.50;99.90;;;;;;5117249;28;20565;-66
2024/01/14 09:07:40;;;;;;;38.27;19.80;;;0.50;99.90;;;;;;5116946;28;20911;-65
2024/01/14 09:10:08;;;;;;;48.07;21.03;;;0.60;99.90;;;;;;5115915;28;20500;-65
2024/01/14 09:12:35;;;;;;;45.00;22.70;;;0.50;99.90;;;;;;5116224;28;20455;-65
2024/01/14 09:15:02;;;;;;;44.60;20.77;;;0.50;99.90;;;;;;5115812;28;20454;-66
2024/01/14 09:17:31;;;;;;;40.37;21.47;;;0.50;99.90;;;;;;5116108;28;20458;-65
2024/01/14 09:19:58;;;;;;;44.20;21.20;;;0.50;99.90;;;;;;5115463;28;20490;-66
2024/01/14 09:22:26;;;;;;;50.30;21.57;;;0.50;99.90;;;;;;5116573;28;20546;-65
2024/01/14 09:24:53;;;;;;;43.20;21.13;;;0.50;99.90;;;;;;5117388;28;20543;-65
2024/01/14 09:27:20;;;;;;;42.10;21.50;;;0.50;99.90;;;;;;5117917;28;20516;-66
2024/01/14 09:29:48;;;;;;;49.87;24.40;;;0.40;99.90;;;;;;5118013;28;20457;-66
2024/01/14 09:32:15;;;;;;;45.93;22.23;;;0.50;99.90;;;;;;5117095;28;20465;-65
2024/01/14 09:34:44;;;;;;;44.20;21.70;;;0.50;99.90;;;;;;5117119;28;20734;-65
2024/01/14 09:37:11;;;;;;;50.13;22.87;;;0.50;99.90;;;;;;5118707;28;20458;-65
2024/01/14 09:39:38;;;;;;;47.90;23.20;;;0.40;99.90;;;;;;5121639;28;20484;-66
2024/01/14 09:42:14;;;;;;;47.43;22.27;;;0.40;99.90;;;;;;5114615;28;20479;-66
2024/01/14 09:44:42;;;;;;;46.20;21.00;;;0.50;99.90;;;;;;5104904;28;20492;-66
2024/01/14 09:47:11;;;;;;;46.33;21.60;;;0.50;99.90;;;;;;5121862;28;20528;-66
2024/01/14 09:49:38;;;;;;;39.67;21.10;;;0.50;99.90;;;;;;5121597;28;20455;-66
2024/01/14 09:52:08;;;;;;;39.33;18.27;;;0.50;99.90;;;;;;5121621;28;20465;-65
2024/01/14 09:54:35;;;;;;;31.40;16.70;;;0.50;99.90;;;;;;5121191;28;20467;-66
2024/01/14 09:57:06;;;;;;;35.13;18.13;;;0.50;99.90;;;;;;5121283;28;20455;-65
2024/01/14 09:59:35;;;;;;;36.77;19.30;;;0.60;99.90;;;;;;5121684;28;20458;-64
2024/01/14 10:02:03;;;;;;;38.40;18.77;;;0.50;99.90;;;;;;5120480;28;20438;-65
2024/01/14 10:04:31;;;;;;;27.30;15.57;;;0.50;99.90;;;;;;5119234;28;20500;-65
2024/01/14 10:06:59;;;;;;;28.47;15.30;;;0.50;99.90;;;;;;5119066;28;20444;-65
2024/01/14 10:09:28;;;;;;;25.77;14.40;;;0.50;99.90;;;;;;5119883;28;20510;-65
2024/01/14 10:11:55;;;;;;;29.97;15.80;;;0.50;99.90;;;;;;5119899;28;20892;-65
2024/01/14 10:14:26;;;;;;;29.57;15.40;;;0.50;99.90;;;;;;5119225;28;20464;-64
2024/01/14 10:16:55;;;;;;;26.13;15.80;;;0.50;99.90;;;;;;5119559;28;20462;-65
2024/01/14 10:19:22;;;;;;;30.80;16.87;;;0.40;99.90;;;;;;5121090;28;20493;-65
2024/01/14 10:21:52;;;;;;;35.17;16.80;;;0.40;99.90;;;;;;5121356;28;20553;-64
2024/01/14 10:24:21;;;;;;;30.13;17.70;;;0.40;99.90;;;;;;5120858;28;20494;-65
2024/01/14 10:26:53;;;;;;;30.50;16.30;;;0.40;99.90;;;;;;5120945;28;20524;-64
2024/01/14 10:29:20;;;;;;;30.63;18.00;;;0.40;99.90;;;;;;5121383;28;20488;-64
2024/01/14 10:31:48;;;;;;;33.40;17.80;;;0.40;99.90;;;;;;5120253;28;20522;-64
2024/01/14 10:34:17;;;;;;;29.67;16.93;;;0.50;99.90;;;;;;5120551;28;20463;-64
2024/01/14 10:36:45;;;;;;;30.80;17.70;;;0.40;99.90;;;;;;5120415;28;20525;-64
2024/01/14 10:39:12;;;;;;;28.20;16.50;;;0.50;99.90;;;;;;5121085;28;20800;-64
2024/01/14 10:41:40;;;;;;;36.53;17.20;;;0.50;99.90;;;;;;5118960;28;20503;-64
2024/01/14 10:44:09;;;;;;;30.60;17.37;;;0.40;99.90;;;;;;5119382;28;20490;-64
2024/01/14 10:46:39;;;;;;;27.33;16.33;;;0.40;99.90;;;;;;5120438;28;20509;-64
2024/01/14 10:49:08;;;;;;;31.30;16.67;;;0.40;99.90;;;;;;5119502;28;20546;-64
2024/01/14 10:51:40;;;;;;;28.40;15.87;;;0.50;99.90;;;;;;5120529;28;20459;-65
2024/01/14 10:54:17;;;;;;;34.90;19.40;;;0.50;99.90;;;;;;5120645;28;20735;-64
2024/01/14 10:56:49;;;;;;;27.30;16.60;;;0.50;99.90;;;;;;5120684;28;20523;-65
2024/01/14 10:59:22;;;;;;;29.67;17.73;;;0.50;99.90;;;;;;5120630;28;20780;-63
2024/01/14 11:01:50;;;;;;;28.13;15.60;;;0.50;99.90;;;;;;5120358;28;20557;-63
2024/01/14 11:04:19;;;;;;;22.20;13.37;;;0.50;99.90;;;;;;5121060;28;20487;-67
2024/01/14 11:06:48;;;;;;;21.53;13.70;;;0.50;99.90;;;;;;5130394;27;20481;-66
2024/01/14 11:09:15;;;;;;;21.37;13.40;;;0.60;99.90;;;;;;5132102;28;20508;-65
2024/01/14 11:12:02;;;;;;;23.93;14.57;;;0.60;99.90;;;;;;5136013;28;20528;-66
2024/01/14 11:14:41;;;;;;;22.30;12.73;;;0.60;99.90;;;;;;5132733;28;20456;-66
2024/01/14 11:17:24;;;;;;;21.00;14.20;;;0.50;99.90;;;;;;5127833;28;20518;-64
2024/01/14 11:19:52;;;;;;;22.10;13.73;;;0.40;99.90;;;;;;5126576;28;20756;-64
2024/01/14 11:22:22;;;;;;;19.67;12.47;;;0.50;99.90;;;;;;5123505;28;20849;-63
2024/01/14 11:24:49;;;;;;;20.93;12.63;;;0.50;99.90;;;;;;5124512;28;20490;-64
2024/01/14 11:27:17;;;;;;;21.60;12.10;;;0.40;99.90;;;;;;5125851;28;20468;-64
2024/01/14 11:29:46;;;;;;;21.23;12.17;;;0.40;99.90;;;;;;5124709;28;20505;-63
2024/01/14 11:32:16;;;;;;;19.03;11.40;;;0.40;99.90;;;;;;5125053;28;20477;-63
2024/01/14 11:34:57;;;;;;;20.80;12.30;;;0.40;99.90;;;;;;5124068;28;20460;-63
2024/01/14 11:37:45;;;;;;;23.23;13.30;;;0.40;99.90;;;;;;5122730;28;20503;-63
2024/01/14 11:40:16;;;;;;;21.20;13.13;;;0.40;99.90;;;;;;5120868;28;20457;-62
2024/01/14 11:42:50;;;;;;;24.40;13.37;;;0.40;99.90;;;;;;5119914;28;20515;-62
2024/01/14 11:45:36;;;;;;;22.53;12.97;;;0.40;99.90;;;;;;5119411;28;20966;-62
2024/01/14 11:48:05;;;;;;;25.67;15.87;;;0.50;99.90;;;;;;5118228;28;20429;-63
2024/01/14 11:50:33;;;;;;;22.07;14.17;;;0.40;99.90;;;;;;5119359;28;20446;-62
2024/01/14 11:53:01;;;;;;;26.13;15.43;;;0.40;99.90;;;;;;5119827;28;20466;-62
2024/01/14 11:55:33;;;;;;;24.67;14.10;;;0.40;99.90;;;;;;5119940;28;20554;-61
2024/01/14 11:58:14;;;;;;;27.80;15.83;;;0.30;99.90;;;;;;5120066;28;20459;-61
2024/01/14 12:00:44;;;;;;;24.73;13.97;;;0.40;99.90;;;;;;5119037;28;20434;-61
2024/01/14 12:03:13;;;;;;;22.83;13.60;;;0.40;99.90;;;;;;5119351;28;20512;-61
2024/01/14 12:05:41;;;;;;;24.93;14.50;;;0.40;99.90;;;;;;5120256;28;20780;-61
2024/01/14 12:08:09;;;;;;;30.70;14.47;;;0.40;99.90;;;;;;5119752;28;20833;-62
2024/01/14 12:10:38;;;;;;;23.53;14.70;;;0.40;99.90;;;;;;5119267;28;20434;-61
2024/01/14 12:13:07;;;;;;;24.03;14.77;;;0.30;99.90;;;;;;5120122;28;20469;-62
2024/01/14 12:15:35;;;;;;;22.73;14.57;;;0.40;99.90;;;;;;5120267;28;20692;-62
2024/01/14 12:18:05;;;;;;;22.97;15.43;;;0.40;99.90;;;;;;5119443;28;20426;-62
2024/01/14 12:20:33;;;;;;;24.40;14.77;;;0.50;99.90;;;;;;5119642;28;20429;-61
2024/01/14 12:23:02;;;;;;;26.00;14.40;;;0.50;99.90;;;;;;5119134;28;20520;-61
2024/01/14 12:25:30;;;;;;;22.37;14.00;;;0.40;99.90;;;;;;5120038;27;20555;-61
2024/01/14 12:27:57;;;;;;;19.67;14.00;;;0.40;99.90;;;;;;5120160;28;20437;-61
2024/01/14 12:30:30;;;;;;;21.73;14.90;;;0.50;99.90;;;;;;5119158;28;20429;-61
2024/01/14 12:33:06;;;;;;;21.27;14.40;;;0.50;99.90;;;;;;5119462;28;20469;-61
2024/01/14 12:35:35;;;;;;;28.90;17.00;;;0.50;99.90;;;;;;5119534;28;20427;-61
2024/01/14 12:38:02;;;;;;;26.93;15.57;;;0.40;99.90;;;;;;5119454;28;20467;-62
2024/01/14 12:40:30;;;;;;;26.20;14.97;;;0.50;99.90;;;;;;5119423;28;20428;-61